Time;durP1;ratioP1;P1;durP2;ratioP2;P2;SDS_P1;SDS_P2;PMS_P1;PMS_P2;Temp;Humidity;BMP_temperature;BMP_pressure;BME280_temperature;BME280_humidity;BME280_pressure;Samples;Min_cycle;Max_cycle;Signal;HPM_P1;HPM_P2
2021/07/15 00:01:42;;;;;;;42.90;18.02;;;;;;;16.50;90.23;101553.06;5052080;28;20086;-61
2021/07/15 00:04:07;;;;;;;44.08;17.98;;;;;;;16.51;90.41;101545.94;5052849;28;20040;-63
2021/07/15 00:06:32;;;;;;;44.20;18.77;;;;;;;16.49;89.95;101550.50;5052364;28;20033;-60
2021/07/15 00:08:59;;;;;;;54.22;18.77;;;;;;;16.48;89.97;101546.09;5053360;28;20053;-61
2021/07/15 00:11:26;;;;;;;48.03;20.90;;;;;;;16.43;90.29;101541.00;5051996;28;20048;-61
2021/07/15 00:13:53;;;;;;;45.70;20.15;;;;;;;16.39;91.08;101552.84;5052008;28;20484;-61
2021/07/15 00:16:19;;;;;;;47.53;19.13;;;;;;;16.40;90.95;101562.59;5053206;28;20036;-61
2021/07/15 00:18:48;;;;;;;50.83;19.42;;;;;;;16.42;90.56;101567.84;5051677;28;20376;-61
2021/07/15 00:21:16;;;;;;;49.30;19.83;;;;;;;16.43;90.88;101567.72;5071792;28;20059;-61
2021/07/15 00:23:42;;;;;;;50.17;18.40;;;;;;;16.44;90.62;101568.63;5072062;28;20078;-61
2021/07/15 00:26:07;;;;;;;52.20;19.83;;;;;;;16.41;90.62;101561.63;5070448;28;20024;-61
2021/07/15 00:28:34;;;;;;;52.33;19.90;;;;;;;16.38;90.97;101564.47;5071884;28;20483;-62
2021/07/15 00:31:00;;;;;;;51.80;20.65;;;;;;;16.39;90.98;101560.84;5070185;28;20180;-61
2021/07/15 00:33:28;;;;;;;45.92;19.25;;;;;;;16.41;90.94;101550.94;5074890;28;20125;-61
2021/07/15 00:35:54;;;;;;;48.17;18.67;;;;;;;16.40;90.49;101559.91;5073868;28;20032;-61
2021/07/15 00:38:19;;;;;;;46.72;18.55;;;;;;;16.40;90.60;101551.03;5075767;28;20016;-61
2021/07/15 00:40:44;;;;;;;45.50;18.42;;;;;;;16.42;90.32;101554.47;5073728;28;20038;-61
2021/07/15 00:43:09;;;;;;;49.08;19.25;;;;;;;16.38;90.50;101562.69;5075523;28;20105;-63
2021/07/15 00:45:35;;;;;;;41.63;18.92;;;;;;;16.41;90.41;101566.97;5075039;28;20025;-62
2021/07/15 00:48:01;;;;;;;46.42;20.27;;;;;;;16.41;90.50;101566.09;5056930;28;20032;-64
2021/07/15 00:50:26;;;;;;;48.55;18.67;;;;;;;16.40;90.42;101570.59;5055289;28;20028;-63
2021/07/15 00:52:52;;;;;;;46.03;19.20;;;;;;;16.43;90.44;101570.41;5056356;28;20079;-64
2021/07/15 00:55:22;;;;;;;47.55;19.27;;;;;;;16.43;90.73;101570.41;5055043;28;20115;-65
2021/07/15 00:57:49;;;;;;;44.70;18.17;;;;;;;16.42;90.13;101567.84;5056326;28;20028;-64
2021/07/15 01:00:15;;;;;;;45.85;18.25;;;;;;;16.43;90.53;101558.88;5055232;28;20111;-64
2021/07/15 01:02:41;;;;;;;50.83;19.52;;;;;;;16.41;90.85;101563.44;5056137;28;20025;-62
2021/07/15 01:05:08;;;;;;;43.40;18.90;;;;;;;16.40;90.40;101557.22;5055093;28;20400;-64
2021/07/15 01:07:33;;;;;;;45.90;18.25;;;;;;;16.40;90.81;101554.56;5056071;28;20020;-64
2021/07/15 01:09:59;;;;;;;39.63;16.90;;;;;;;16.40;90.74;101557.22;5055117;28;20659;-64
2021/07/15 01:12:38;;;;;;;51.30;18.33;;;;;;;16.41;90.72;101563.44;5055819;28;20047;-64
2021/07/15 01:15:16;;;;;;;45.78;17.92;;;;;;;16.42;90.51;101571.38;5054892;28;20120;-63
2021/07/15 01:18:01;;;;;;;39.65;17.75;;;;;;;16.41;90.83;101579.47;5056003;28;20029;-65
2021/07/15 01:20:45;;;;;;;41.50;17.42;;;;;;;16.41;90.44;101580.34;5054091;28;20037;-65
2021/07/15 01:23:16;;;;;;;41.88;16.75;;;;;;;16.37;90.65;101571.63;5056443;28;20020;-65
2021/07/15 01:25:57;;;;;;;42.93;17.67;;;;;;;16.37;90.69;101562.78;5073863;28;20107;-64
2021/07/15 01:28:33;;;;;;;37.97;16.83;;;;;;;16.40;90.86;101567.06;5073025;28;20017;-65
2021/07/15 01:31:01;;;;;;;36.58;17.17;;;;;;;16.38;90.30;101572.50;5074969;28;20024;-64
2021/07/15 01:33:28;;;;;;;41.17;17.38;;;;;;;16.40;90.57;101578.63;5072827;28;20185;-63
2021/07/15 01:35:57;;;;;;;40.33;16.40;;;;;;;16.37;90.18;101576.97;5072580;28;20044;-63
2021/07/15 01:38:27;;;;;;;37.22;16.92;;;;;;;16.38;90.15;101581.38;5072526;28;20029;-63
2021/07/15 01:41:07;;;;;;;33.28;15.57;;;;;;;16.39;90.24;101587.59;5074761;28;20054;-64
2021/07/15 01:43:38;;;;;;;37.22;15.90;;;;;;;16.42;90.06;101583.88;5073906;28;20040;-64
2021/07/15 01:46:05;;;;;;;38.53;17.50;;;;;;;16.43;90.37;101580.25;5072477;28;20111;-64
2021/07/15 01:48:31;;;;;;;41.72;16.23;;;;;;;16.41;90.35;101595.50;5072693;28;20020;-64
2021/07/15 01:50:57;;;;;;;49.63;17.15;;;;;;;16.37;90.50;101587.69;5059084;28;20051;-64
2021/07/15 01:53:23;;;;;;;47.55;16.45;;;;;;;16.35;90.55;101586.03;5054227;28;20025;-61
2021/07/15 01:55:50;;;;;;;39.25;17.23;;;;;;;16.32;90.69;101576.38;5054965;28;20524;-63
2021/07/15 01:58:16;;;;;;;40.00;16.02;;;;;;;16.32;90.37;101568.38;5054035;28;20028;-64
2021/07/15 02:00:42;;;;;;;34.03;15.80;;;;;;;16.31;90.38;101569.31;5055037;28;20362;-65
2021/07/15 02:03:09;;;;;;;39.22;17.05;;;;;;;16.30;90.80;101569.41;5054129;28;20029;-64
2021/07/15 02:05:36;;;;;;;38.30;17.13;;;;;;;16.30;91.08;101569.41;5054677;28;20024;-64
2021/07/15 02:08:04;;;;;;;36.83;17.48;;;;;;;16.29;90.75;101562.34;5053810;28;20465;-62
2021/07/15 02:10:30;;;;;;;40.75;17.00;;;;;;;16.28;90.66;101565.94;5064651;28;20039;-61
2021/07/15 02:12:57;;;;;;;38.75;17.77;;;;;;;16.26;90.85;101566.03;5073833;28;20024;-63
2021/07/15 02:15:28;;;;;;;39.97;16.95;;;;;;;16.24;91.10;101564.41;5074007;28;20094;-61
2021/07/15 02:17:56;;;;;;;41.83;17.05;;;;;;;16.21;91.14;101552.97;5072112;28;20032;-63
2021/07/15 02:20:22;;;;;;;39.10;18.13;;;;;;;16.21;91.24;101561.00;5071908;28;20055;-63
2021/07/15 02:22:49;;;;;;;41.35;18.17;;;;;;;16.19;91.08;101556.69;5072730;28;20067;-64
2021/07/15 02:25:16;;;;;;;39.58;18.05;;;;;;;16.19;91.61;101551.34;5053527;28;20491;-65
2021/07/15 02:27:45;;;;;;;39.70;19.02;;;;;;;16.21;91.56;101552.09;5054728;28;20031;-62
2021/07/15 02:30:15;;;;;;;48.25;19.33;;;;;;;16.20;91.04;101551.25;5059566;28;20028;-64
2021/07/15 02:32:44;;;;;;;44.42;18.70;;;;;;;16.18;91.25;101545.09;5071042;28;20092;-63
2021/07/15 02:35:14;;;;;;;47.90;18.83;;;;;;;16.17;91.38;101537.19;5058140;28;20049;-63
2021/07/15 02:37:45;;;;;;;43.70;18.10;;;;;;;16.17;91.17;101534.50;5053975;28;20029;-63
2021/07/15 02:40:14;;;;;;;40.25;17.55;;;;;;;16.17;91.33;101537.19;5053342;28;20032;-63
2021/07/15 02:42:42;;;;;;;48.70;19.95;;;;;;;16.15;91.63;101541.75;5054562;28;20033;-63
2021/07/15 02:45:10;;;;;;;47.15;19.60;;;;;;;16.15;91.29;101547.09;5053468;28;20021;-64
2021/07/15 02:47:38;;;;;;;47.55;19.20;;;;;;;16.13;91.67;101538.31;5052882;28;20025;-61
2021/07/15 02:50:04;;;;;;;50.53;19.98;;;;;;;16.11;91.72;101537.53;5054676;28;20497;-64
2021/07/15 02:52:30;;;;;;;37.22;17.30;;;;;;;16.11;91.87;101543.72;5064946;28;20033;-64
2021/07/15 02:54:55;;;;;;;47.90;18.10;;;;;;;16.11;91.38;101527.69;5073005;28;20021;-63
2021/07/15 02:57:26;;;;;;;40.92;18.25;;;;;;;16.10;91.41;101541.16;5072844;28;20124;-62
2021/07/15 03:00:04;;;;;;;39.08;17.20;;;;;;;16.11;91.15;101540.19;5071099;28;20400;-64
2021/07/15 03:02:42;;;;;;;37.20;16.35;;;;;;;16.14;91.40;101526.66;5071100;28;20024;-61
2021/07/15 03:05:11;;;;;;;40.97;17.35;;;;;;;16.15;91.27;101531.06;5072887;28;20078;-63
2021/07/15 03:07:49;;;;;;;45.75;18.85;;;;;;;16.11;90.88;101529.50;5072785;28;20078;-63
2021/07/15 03:10:17;;;;;;;39.92;17.13;;;;;;;16.11;90.76;101546.41;5071001;28;20035;-64
2021/07/15 03:12:43;;;;;;;40.05;15.52;;;;;;;16.09;90.83;101548.31;5070847;28;20404;-64
2021/07/15 03:15:10;;;;;;;44.20;16.63;;;;;;;16.06;91.03;101548.47;5072528;28;20029;-64
2021/07/15 03:17:38;;;;;;;38.30;17.02;;;;;;;16.04;90.83;101543.22;5072511;28;20396;-63
2021/07/15 03:20:11;;;;;;;38.20;16.88;;;;;;;16.07;91.19;101542.19;5071152;28;20112;-64
2021/07/15 03:22:38;;;;;;;39.95;16.45;;;;;;;16.11;91.04;101535.72;5071142;28;20103;-64
2021/07/15 03:25:08;;;;;;;38.83;15.85;;;;;;;16.10;90.68;101542.03;5072479;28;20071;-64
2021/07/15 03:27:35;;;;;;;36.83;14.80;;;;;;;16.14;90.39;101540.00;5072506;28;20039;-64
2021/07/15 03:30:05;;;;;;;34.47;16.23;;;;;;;16.13;90.74;101538.31;5072274;28;20059;-64
2021/07/15 03:32:32;;;;;;;41.70;15.38;;;;;;;16.12;90.40;101540.13;5071223;28;20104;-64
2021/07/15 03:34:58;;;;;;;42.85;16.13;;;;;;;16.13;90.67;101535.66;5070833;28;20028;-63
2021/07/15 03:37:24;;;;;;;42.70;15.38;;;;;;;16.11;90.29;101545.53;5072266;28;20116;-63
2021/07/15 03:39:51;;;;;;;38.70;15.00;;;;;;;16.14;90.47;101550.69;5072195;28;20024;-64
2021/07/15 03:42:20;;;;;;;36.25;15.48;;;;;;;16.15;90.44;101558.66;5070616;28;20024;-63
2021/07/15 03:44:46;;;;;;;34.58;14.50;;;;;;;16.14;89.95;101546.25;5070845;28;20021;-61
2021/07/15 03:47:14;;;;;;;43.25;15.70;;;;;;;16.16;90.05;101551.50;5072634;28;20077;-64
2021/07/15 03:49:42;;;;;;;35.85;14.93;;;;;;;16.16;90.39;101548.81;5072171;28;20146;-63
2021/07/15 03:52:13;;;;;;;38.08;14.90;;;;;;;16.17;90.44;101556.75;5070869;28;20029;-64
2021/07/15 03:54:41;;;;;;;30.33;13.57;;;;;;;16.19;89.86;101549.50;5070619;28;20073;-63
2021/07/15 03:57:09;;;;;;;34.85;15.27;;;;;;;16.19;89.81;101556.69;5072236;28;20111;-62
2021/07/15 03:59:40;;;;;;;39.15;14.90;;;;;;;16.20;89.65;101561.94;5072304;28;20473;-63
2021/07/15 04:02:08;;;;;;;39.60;15.13;;;;;;;16.21;89.24;101555.63;5072327;28;20112;-63
2021/07/15 04:04:36;;;;;;;38.83;15.38;;;;;;;16.24;89.40;101564.41;5069079;28;20024;-61
2021/07/15 04:07:04;;;;;;;41.65;15.75;;;;;;;16.26;89.24;101571.38;5073287;28;20017;-64
2021/07/15 04:09:34;;;;;;;38.83;14.93;;;;;;;16.27;89.11;101570.44;5075706;28;20021;-63
2021/07/15 04:12:01;;;;;;;39.22;15.20;;;;;;;16.28;88.61;101569.50;5075691;28;20461;-63
2021/07/15 04:14:52;;;;;;;36.65;14.43;;;;;;;16.32;88.40;101570.19;5073854;28;20033;-63
2021/07/15 04:17:18;;;;;;;43.13;15.47;;;;;;;16.35;87.88;101564.66;5055834;28;20079;-63
2021/07/15 04:19:45;;;;;;;39.63;14.95;;;;;;;16.38;87.33;101578.72;5055723;28;20065;-63
2021/07/15 04:22:12;;;;;;;33.92;14.48;;;;;;;16.40;87.51;101578.63;5055576;28;20021;-63
2021/07/15 04:24:40;;;;;;;36.10;14.88;;;;;;;16.42;87.55;101571.38;5056705;28;20052;-63
2021/07/15 04:27:06;;;;;;;42.75;15.30;;;;;;;16.44;87.52;101574.81;5056380;28;20489;-65
2021/07/15 04:29:33;;;;;;;36.40;15.30;;;;;;;16.46;87.23;101586.28;5055561;28;20054;-64
2021/07/15 04:32:13;;;;;;;32.92;15.57;;;;;;;16.46;86.94;101585.41;5055769;28;20029;-64
2021/07/15 04:34:39;;;;;;;39.33;15.45;;;;;;;16.45;86.91;101587.22;5056557;28;20025;-64
2021/07/15 04:37:05;;;;;;;33.00;13.82;;;;;;;16.45;87.38;101581.88;5056629;28;20044;-65
2021/07/15 04:39:32;;;;;;;36.58;14.90;;;;;;;16.47;86.85;101593.38;5055548;28;20025;-64
2021/07/15 04:42:01;;;;;;;36.00;14.50;;;;;;;16.41;86.80;101592.84;5055168;28;20104;-64
2021/07/15 04:44:33;;;;;;;26.38;13.68;;;;;;;16.42;86.80;101590.09;5055430;28;20056;-63
2021/07/15 04:47:00;;;;;;;32.75;14.63;;;;;;;16.44;87.03;101598.88;5057416;28;20531;-64
2021/07/15 04:49:26;;;;;;;36.95;14.77;;;;;;;16.43;86.76;101601.63;5055389;28;20059;-62
2021/07/15 04:51:54;;;;;;;36.40;14.85;;;;;;;16.41;87.35;101616.88;5055420;28;20025;-65
2021/07/15 04:54:22;;;;;;;35.47;14.85;;;;;;;16.41;87.04;101606.19;5055036;28;20039;-64
2021/07/15 04:56:48;;;;;;;36.20;14.25;;;;;;;16.40;87.22;101613.38;5057221;28;20028;-64
2021/07/15 04:59:14;;;;;;;33.08;13.35;;;;;;;16.38;87.36;101605.44;5055034;28;20027;-64
2021/07/15 05:01:39;;;;;;;36.50;13.80;;;;;;;16.42;87.03;101605.25;5054986;28;20103;-65
2021/07/15 05:04:05;;;;;;;37.00;13.50;;;;;;;16.45;87.19;101605.94;5054986;28;20021;-64
2021/07/15 05:06:30;;;;;;;35.92;13.75;;;;;;;16.48;86.81;101611.13;5056206;28;20113;-64
2021/07/15 05:08:56;;;;;;;34.17;13.25;;;;;;;16.51;86.19;101610.09;5056111;28;20485;-64
2021/07/15 05:11:21;;;;;;;36.15;13.30;;;;;;;16.48;86.30;101608.47;5054644;28;20036;-64
2021/07/15 05:13:46;;;;;;;27.60;12.70;;;;;;;16.46;86.20;101594.31;5054616;28;20040;-64
2021/07/15 05:16:12;;;;;;;31.63;13.05;;;;;;;16.48;85.84;101604.91;5059174;28;20061;-63
2021/07/15 05:18:38;;;;;;;30.90;12.10;;;;;;;16.51;85.98;101615.44;5068248;28;20024;-63
2021/07/15 05:21:04;;;;;;;25.08;12.63;;;;;;;16.50;85.97;101613.72;5073705;28;20032;-65
2021/07/15 05:23:29;;;;;;;33.45;12.30;;;;;;;16.53;85.60;101616.19;5070966;28;20086;-64
2021/07/15 05:25:56;;;;;;;30.73;11.18;;;;;;;16.54;85.80;101613.44;5061497;28;20033;-65
2021/07/15 05:28:22;;;;;;;25.95;11.00;;;;;;;16.53;85.33;101605.50;5072197;28;20501;-64
2021/07/15 05:30:47;;;;;;;32.15;11.98;;;;;;;16.51;85.54;101612.78;5072968;28;20055;-64
2021/07/15 05:33:13;;;;;;;29.67;10.98;;;;;;;16.51;85.14;101626.13;5057132;28;20051;-63
2021/07/15 05:35:40;;;;;;;32.13;11.90;;;;;;;16.58;84.63;101622.13;5074172;28;20037;-61
2021/07/15 05:38:06;;;;;;;27.98;11.50;;;;;;;16.63;84.59;101616.53;5073609;28;20035;-63
2021/07/15 05:40:32;;;;;;;27.92;11.55;;;;;;;16.64;84.48;101623.63;5072907;28;20028;-63
2021/07/15 05:42:58;;;;;;;33.55;11.45;;;;;;;16.62;84.10;101615.66;5054778;28;20043;-61
2021/07/15 05:45:23;;;;;;;32.20;11.02;;;;;;;16.63;84.54;101609.38;5059616;28;20060;-63
2021/07/15 05:47:49;;;;;;;27.15;11.50;;;;;;;16.60;84.03;101625.59;5065367;28;20037;-63
2021/07/15 05:50:15;;;;;;;34.45;11.63;;;;;;;16.61;84.05;101623.78;5056218;28;20465;-65
2021/07/15 05:52:40;;;;;;;29.85;11.75;;;;;;;16.60;83.97;101622.03;5054832;28;20029;-65
2021/07/15 05:55:05;;;;;;;28.02;10.65;;;;;;;16.61;84.04;101621.97;5054953;28;20477;-63
2021/07/15 05:57:33;;;;;;;24.42;10.05;;;;;;;16.64;83.95;101631.63;5068515;28;20028;-65
2021/07/15 06:00:04;;;;;;;29.30;10.48;;;;;;;16.57;83.78;101627.59;5063661;28;20096;-63
2021/07/15 06:02:29;;;;;;;21.13;9.80;;;;;;;16.61;84.07;101631.78;5066555;28;20026;-64
2021/07/15 06:04:54;;;;;;;25.00;9.98;;;;;;;16.60;83.37;101627.41;5071511;28;20107;-64
2021/07/15 06:07:19;;;;;;;26.17;10.68;;;;;;;16.66;83.84;101635.06;5073064;28;20039;-64
2021/07/15 06:09:45;;;;;;;22.52;9.32;;;;;;;16.68;82.64;101633.19;5065639;28;20031;-62
2021/07/15 06:12:10;;;;;;;29.15;10.15;;;;;;;16.68;83.23;101635.84;5067276;28;20041;-61
2021/07/15 06:14:36;;;;;;;22.80;9.52;;;;;;;16.69;83.07;101634.91;5059897;28;20539;-64
2021/07/15 06:17:03;;;;;;;20.00;9.75;;;;;;;16.73;83.11;101646.25;5067611;28;20476;-65
2021/07/15 06:19:28;;;;;;;26.90;10.55;;;;;;;16.79;83.13;101640.56;5059171;28;20029;-64
2021/07/15 06:21:53;;;;;;;30.50;10.57;;;;;;;16.84;82.94;101650.06;5054697;28;20112;-65
2021/07/15 06:24:19;;;;;;;24.40;10.27;;;;;;;16.95;82.83;101643.25;5054338;28;20036;-65
2021/07/15 06:26:46;;;;;;;26.23;10.38;;;;;;;17.08;82.10;101643.38;5054694;28;20079;-64
2021/07/15 06:29:12;;;;;;;30.92;10.48;;;;;;;17.06;81.12;101642.59;5053217;28;20476;-65
2021/07/15 06:31:38;;;;;;;23.30;9.23;;;;;;;17.04;81.70;101648.91;5059112;28;20031;-64
2021/07/15 06:34:03;;;;;;;23.95;9.18;;;;;;;17.07;81.05;101657.69;5066602;28;20399;-64
2021/07/15 06:36:32;;;;;;;18.85;8.95;;;;;;;17.12;81.33;101659.16;5056968;28;20124;-62
2021/07/15 06:38:58;;;;;;;22.55;9.52;;;;;;;17.02;81.47;101666.88;5065125;28;20353;-62
2021/07/15 06:41:23;;;;;;;24.02;9.85;;;;;;;16.99;81.76;101664.34;5071684;28;20430;-62
2021/07/15 06:43:49;;;;;;;20.27;10.32;;;;;;;16.92;81.59;101652.31;5061182;28;20024;-61
2021/07/15 06:46:15;;;;;;;24.25;9.98;;;;;;;16.94;81.72;101652.22;5059304;28;20031;-64
2021/07/15 06:48:40;;;;;;;21.80;9.30;;;;;;;16.96;81.61;101674.41;5073324;28;20387;-61
2021/07/15 06:51:06;;;;;;;24.70;10.45;;;;;;;16.94;81.66;101663.78;5061944;28;20028;-62
2021/07/15 06:53:31;;;;;;;28.38;10.43;;;;;;;16.97;81.77;101663.59;5052548;28;20052;-63
2021/07/15 06:55:58;;;;;;;26.30;10.18;;;;;;;16.97;81.79;101670.75;5065794;28;20029;-64
2021/07/15 06:58:24;;;;;;;25.48;10.32;;;;;;;16.91;81.66;101677.34;5054537;28;20071;-63
2021/07/15 07:00:49;;;;;;;27.42;10.27;;;;;;;16.96;81.70;101671.72;5070923;28;20048;-64
2021/07/15 07:03:15;;;;;;;23.65;10.25;;;;;;;16.88;81.58;101672.16;5065746;28;20025;-64
2021/07/15 07:05:40;;;;;;;25.80;10.07;;;;;;;16.87;81.83;101683.78;5061304;28;20036;-62
2021/07/15 07:08:09;;;;;;;29.23;9.93;;;;;;;16.86;81.70;101690.09;5053898;28;20020;-63
2021/07/15 07:10:34;;;;;;;25.40;10.32;;;;;;;16.85;81.42;101681.22;5072625;28;20029;-61
2021/07/15 07:13:00;;;;;;;25.75;10.40;;;;;;;16.85;81.68;101694.59;5057368;28;20036;-64
2021/07/15 07:15:25;;;;;;;23.05;9.68;;;;;;;16.88;81.74;101701.56;5053158;28;20024;-64
2021/07/15 07:17:51;;;;;;;26.42;9.30;;;;;;;16.86;81.26;101690.94;5059809;28;20033;-65
2021/07/15 07:20:17;;;;;;;21.58;9.63;;;;;;;16.92;81.28;101702.25;5060470;28;20016;-65
2021/07/15 07:22:43;;;;;;;26.50;9.52;;;;;;;16.99;81.16;101696.47;5063419;28;20434;-63
2021/07/15 07:25:10;;;;;;;24.23;9.30;;;;;;;17.03;80.63;101702.50;5057657;28;20063;-61
2021/07/15 07:27:37;;;;;;;18.48;9.60;;;;;;;17.06;80.15;101709.50;5065847;28;20025;-65
2021/07/15 07:30:04;;;;;;;23.83;9.27;;;;;;;17.07;80.18;101705.88;5052409;28;20040;-64
2021/07/15 07:32:30;;;;;;;24.35;8.90;;;;;;;17.10;80.11;101708.38;5063933;28;20027;-63
2021/07/15 07:34:55;;;;;;;24.05;9.45;;;;;;;17.15;79.99;101706.31;5072583;28;20107;-63
2021/07/15 07:37:21;;;;;;;21.75;9.25;;;;;;;17.26;80.04;101702.97;5072451;28;20089;-63
2021/07/15 07:39:46;;;;;;;22.98;8.70;;;;;;;17.33;79.86;101707.88;5072728;28;20131;-66
2021/07/15 07:42:11;;;;;;;19.92;8.20;;;;;;;17.52;79.31;101712.13;5072099;28;20024;-62
2021/07/15 07:44:37;;;;;;;21.83;8.63;;;;;;;17.66;78.12;101709.47;5072893;28;20024;-64
2021/07/15 07:47:03;;;;;;;22.38;8.63;;;;;;;17.74;77.74;101716.19;5072571;28;20066;-64
2021/07/15 07:49:28;;;;;;;19.48;8.75;;;;;;;17.71;78.17;101727.97;5072592;28;20016;-64
2021/07/15 07:51:54;;;;;;;23.73;9.20;;;;;;;17.77;77.91;101716.84;5072225;28;20043;-64
2021/07/15 07:54:19;;;;;;;28.95;8.40;;;;;;;17.80;77.89;101713.09;5072593;28;20112;-62
2021/07/15 07:56:45;;;;;;;22.67;8.00;;;;;;;17.83;77.26;101715.63;5072500;28;20342;-64
2021/07/15 07:59:10;;;;;;;23.77;8.20;;;;;;;17.85;77.51;101724.41;5072434;28;20503;-62
2021/07/15 08:01:35;;;;;;;20.80;7.68;;;;;;;17.94;76.08;101713.16;5072239;28;20421;-63
2021/07/15 08:04:02;;;;;;;18.08;6.93;;;;;;;17.98;76.01;101713.81;5072623;28;20063;-65
2021/07/15 08:06:33;;;;;;;22.63;8.27;;;;;;;18.08;76.65;101727.50;5071914;28;20016;-63
2021/07/15 08:08:59;;;;;;;23.83;8.55;;;;;;;18.11;76.32;101725.50;5071847;28;20177;-63
2021/07/15 08:11:24;;;;;;;23.95;8.00;;;;;;;18.20;75.85;101726.75;5043625;28;20147;-64
2021/07/15 08:13:49;;;;;;;19.08;8.77;;;;;;;18.08;76.01;101731.06;5025201;28;20025;-64
2021/07/15 08:16:14;;;;;;;20.73;8.63;;;;;;;18.03;76.34;101733.19;5022591;28;20466;-64
2021/07/15 08:18:40;;;;;;;20.92;8.95;;;;;;;18.07;76.62;101737.38;5023911;28;20495;-61
2021/07/15 08:21:05;;;;;;;17.15;8.30;;;;;;;18.11;76.37;101749.63;5029742;28;20034;-64
2021/07/15 08:23:30;;;;;;;26.52;9.38;;;;;;;18.17;76.01;101753.72;5031641;28;20030;-64
2021/07/15 08:25:56;;;;;;;23.42;8.75;;;;;;;18.12;75.29;101740.63;5027156;28;20143;-64
2021/07/15 08:28:21;;;;;;;20.90;9.68;;;;;;;18.18;75.86;101739.38;5021314;28;20482;-61
2021/07/15 08:30:46;;;;;;;19.08;8.27;;;;;;;18.31;75.29;101747.50;5030510;28;20033;-63
2021/07/15 08:33:12;;;;;;;22.33;8.40;;;;;;;18.43;75.18;101745.88;5026609;28;20112;-60
2021/07/15 08:35:37;;;;;;;25.15;8.50;;;;;;;18.63;74.66;101742.78;5020094;28;20029;-63
2021/07/15 08:38:03;;;;;;;20.13;7.95;;;;;;;18.60;74.27;101739.44;5021799;28;20041;-63
2021/07/15 08:40:29;;;;;;;21.35;7.85;;;;;;;18.55;74.27;101746.91;5024410;28;20399;-62
2021/07/15 08:42:55;;;;;;;17.45;8.18;;;;;;;18.59;73.61;101751.13;5019920;28;20523;-63
2021/07/15 08:45:20;;;;;;;20.55;8.00;;;;;;;18.45;74.65;101750.19;5018937;28;20040;-63
2021/07/15 08:47:46;;;;;;;21.85;9.45;;;;;;;18.47;74.22;101744.72;5020671;28;20029;-64
2021/07/15 08:50:14;;;;;;;14.93;7.82;;;;;;;18.62;73.71;101748.22;5021702;28;20038;-63
2021/07/15 08:52:41;;;;;;;19.05;7.32;;;;;;;18.55;73.11;101753.13;5026971;28;20378;-62
2021/07/15 08:57:34;;;;;;;18.58;8.48;;;;;;;18.58;73.58;101768.16;5030456;28;20123;-62
2021/07/15 08:59:59;;;;;;;17.10;8.00;;;;;;;18.41;73.92;101769.25;5030812;28;20109;-64
2021/07/15 09:02:25;;;;;;;16.17;7.32;;;;;;;18.44;74.16;101774.41;5015407;28;20022;-63
2021/07/15 09:04:51;;;;;;;17.95;8.60;;;;;;;18.58;74.07;101774.41;5021082;28;20100;-63
2021/07/15 09:07:17;;;;;;;19.83;8.40;;;;;;;18.68;73.92;101782.72;5027227;28;20040;-65
2021/07/15 09:09:46;;;;;;;20.02;7.88;;;;;;;18.78;73.26;101777.63;5021111;28;20135;-63
2021/07/15 09:12:13;;;;;;;23.67;8.07;;;;;;;18.71;73.25;101789.69;5056178;28;20051;-61
2021/07/15 09:14:47;;;;;;;22.27;8.80;;;;;;;18.44;74.05;101780.66;5075492;28;20031;-61
2021/07/15 09:17:13;;;;;;;20.65;9.05;;;;;;;18.32;74.28;101789.47;5070902;28;20037;-61
2021/07/15 09:19:40;;;;;;;24.85;9.05;;;;;;;18.39;74.52;101795.28;5063644;28;20032;-64
2021/07/15 09:22:14;;;;;;;17.58;8.65;;;;;;;18.37;74.36;101795.38;5074069;28;20024;-63
2021/07/15 09:24:41;;;;;;;22.13;9.13;;;;;;;18.60;74.58;101798.44;5074047;28;20111;-63
2021/07/15 09:27:27;;;;;;;21.25;8.85;;;;;;;18.70;73.85;101804.09;5071902;28;20021;-61
2021/07/15 09:30:15;;;;;;;24.25;8.60;;;;;;;18.62;73.62;101805.44;5065200;28;20055;-63
2021/07/15 09:32:56;;;;;;;19.17;8.25;;;;;;;18.99;72.86;101796.88;5059909;28;20115;-62
2021/07/15 09:35:28;;;;;;;18.83;8.02;;;;;;;19.36;71.57;101791.75;5070090;28;20028;-63
2021/07/15 09:38:18;;;;;;;20.33;7.50;;;;;;;19.79;69.60;101799.56;5058617;28;20036;-62
2021/07/15 09:40:46;;;;;;;22.58;8.23;;;;;;;19.67;70.00;101794.16;5064117;28;20469;-63
2021/07/15 09:43:11;;;;;;;16.45;7.50;;;;;;;19.77;69.71;101787.19;5057553;28;20063;-63
2021/07/15 09:45:36;;;;;;;16.92;7.90;;;;;;;20.04;68.50;101810.47;5073550;28;20499;-60
2021/07/15 09:48:12;;;;;;;18.02;7.28;;;;;;;19.91;68.31;101797.03;5073846;28;20782;-64
2021/07/15 09:50:39;;;;;;;21.52;8.45;;;;;;;19.49;69.18;101811.44;5067125;28;20016;-62
2021/07/15 09:53:14;;;;;;;17.95;7.93;;;;;;;19.36;70.00;101801.63;5072889;28;20362;-65
2021/07/15 09:55:40;;;;;;;18.45;7.93;;;;;;;19.16;71.35;101812.72;5074444;28;20036;-63
2021/07/15 09:58:07;;;;;;;19.52;8.50;;;;;;;19.05;71.63;101811.72;5055082;28;20036;-61
2021/07/15 10:00:34;;;;;;;17.10;8.23;;;;;;;18.88;71.33;101826.19;5063483;28;20064;-64
2021/07/15 10:03:01;;;;;;;19.42;8.23;;;;;;;18.87;72.18;101824.47;5053944;28;20039;-64
2021/07/15 10:05:26;;;;;;;19.50;8.27;;;;;;;18.94;71.70;101812.38;5068589;28;20036;-64
2021/07/15 10:08:08;;;;;;;18.00;8.38;;;;;;;18.87;72.18;101824.47;5065426;28;20109;-64
2021/07/15 10:10:33;;;;;;;;;;;;;;;18.94;71.62;101829.38;5069858;28;20021;-65
2021/07/15 10:13:13;;;;;;;17.23;8.63;;;;;;;18.84;71.77;101829.06;5073706;28;19920;-60
2021/07/15 10:15:39;;;;;;;17.95;8.35;;;;;;;18.78;71.51;101825.91;5070365;28;20012;-61
2021/07/15 10:18:04;;;;;;;18.45;8.70;;;;;;;18.81;72.39;101828.41;5060738;28;20037;-62
2021/07/15 10:20:30;;;;;;;17.83;8.65;;;;;;;19.12;71.74;101827.31;5074161;28;20021;-64
2021/07/15 10:22:57;;;;;;;18.58;8.25;;;;;;;19.31;71.04;101818.06;5066447;28;20477;-64
2021/07/15 10:25:22;;;;;;;19.20;8.80;;;;;;;19.23;71.15;101831.13;5067559;28;20056;-64
2021/07/15 10:27:48;;;;;;;20.75;8.77;;;;;;;19.04;71.63;101820.72;5071819;28;20028;-62
2021/07/15 10:30:15;;;;;;;20.42;8.73;;;;;;;18.82;72.81;101820.28;5060039;28;20433;-62
2021/07/15 10:32:41;;;;;;;17.65;7.80;;;;;;;18.82;71.91;101824.75;5069464;28;20032;-61
2021/07/15 10:35:09;;;;;;;19.48;8.35;;;;;;;18.98;71.72;101825.53;5063435;28;20357;-62
2021/07/15 10:37:42;;;;;;;16.95;8.48;;;;;;;19.06;71.67;101824.19;5067527;28;20037;-63
2021/07/15 10:40:11;;;;;;;20.95;8.90;;;;;;;19.22;71.11;101824.91;5062582;28;20365;-64
2021/07/15 10:42:38;;;;;;;23.52;8.77;;;;;;;19.22;71.25;101827.59;5064889;28;20024;-62
2021/07/15 10:45:05;;;;;;;18.92;8.50;;;;;;;19.16;70.63;101833.34;5062578;28;20032;-63
2021/07/15 10:47:30;;;;;;;20.40;8.80;;;;;;;19.13;70.62;101837.09;5062591;28;20396;-63
2021/07/15 10:49:56;;;;;;;24.17;8.73;;;;;;;19.18;71.61;101819.81;5061352;28;20016;-64
2021/07/15 10:52:24;;;;;;;20.08;8.57;;;;;;;19.21;71.47;101839.28;5060393;28;20040;-62
2021/07/15 10:54:50;;;;;;;21.55;8.38;;;;;;;19.32;70.84;101830.50;5064760;28;20432;-64
2021/07/15 10:57:20;;;;;;;18.15;8.48;;;;;;;19.31;70.83;101831.50;5059896;28;20079;-62
2021/07/15 10:59:46;;;;;;;18.42;8.18;;;;;;;19.15;71.70;101829.78;5071724;28;20435;-63
2021/07/15 11:02:23;;;;;;;19.85;7.88;;;;;;;19.48;70.56;101830.34;5073235;28;20032;-62
2021/07/15 11:04:50;;;;;;;18.80;8.05;;;;;;;19.79;69.61;101829.13;5073040;28;20021;-65
2021/07/15 11:07:21;;;;;;;17.02;7.97;;;;;;;20.36;68.23;101829.75;5071284;28;20385;-62
2021/07/15 11:09:47;;;;;;;;;;;;;;;20.49;67.22;101826.16;5053381;28;20025;-63
2021/07/15 11:12:38;;;;;;;21.83;8.23;;;;;;;20.23;68.59;101828.88;5052587;28;19923;-64
2021/07/15 11:15:16;;;;;;;17.02;7.97;;;;;;;20.20;68.04;101827.25;5056343;28;20576;-64
2021/07/15 11:17:51;;;;;;;16.23;7.65;;;;;;;20.16;68.12;101833.84;5071666;28;20032;-63